Roxbury, New Hampshire
Current Conditions -  °F | °C
As of 4:35 AM on Saturday 25 Oct 2014 (Local Time) from KEEN Reporting Station
Broken Clouds Broken Clouds  
Wind Chill: 37°   Ceiling: 200
Heat Index: 37°   Visibility: 6mi
Dew Point: 30°   Wind: 0mph
Humidity: 75%   Direction: NA
Pressure: 29.78"   Gusts: NA
Location:  42.9764°N, 72.2744°W
Report Text: KEEN 250835Z AUTO 00000KT 6SM BKN002 03/M01 A2978 RMK AO1
Loading
Personal Weather Stations






























Interactive Weather Map
Tropical Storm Tracking
New forecast layout! Learn more

10-Day Weather Forecast

Advertisements
Track Severe Weather on mobile